createdAt,value
2023-05-14T00:02:14.609Z,98131.84
2023-05-14T00:04:43.406Z,98153.75
2023-05-14T00:07:11.785Z,98149.66
2023-05-14T00:09:41.821Z,98148.03
2023-05-14T00:12:10.704Z,98142.06
2023-05-14T00:14:39.487Z,98126.81
2023-05-14T00:17:08.663Z,98137.75
2023-05-14T00:19:37.072Z,98141.16
2023-05-14T00:22:06.123Z,98152.41
2023-05-14T00:24:34.387Z,98142.94
2023-05-14T00:27:04.804Z,98138.72
2023-05-14T00:29:33.194Z,98110.78
2023-05-14T00:32:01.885Z,98126.88
2023-05-14T00:34:30.164Z,98125.00
2023-05-14T00:36:59.225Z,98125.00
2023-05-14T00:39:28.122Z,98130.81
2023-05-14T00:41:57.139Z,98136.84
2023-05-14T00:44:27.145Z,98124.94
2023-05-14T00:46:55.814Z,98131.75
2023-05-14T00:49:25.169Z,98128.44
2023-05-14T00:51:54.387Z,98134.56
2023-05-14T00:54:22.860Z,98120.06
2023-05-14T00:56:52.143Z,98123.56
2023-05-14T00:59:20.443Z,98121.84
2023-05-14T01:01:50.529Z,98121.03
2023-05-14T01:04:19.092Z,98118.44
2023-05-14T01:07:04.059Z,98122.53
2023-05-14T01:09:39.527Z,98125.75
2023-05-14T01:12:16.746Z,98125.63
2023-05-14T01:14:52.145Z,98121.22
2023-05-14T01:17:23.778Z,98128.84
2023-05-14T01:19:52.897Z,98127.81
2023-05-14T01:22:22.401Z,98131.88
2023-05-14T01:24:50.813Z,98126.59
2023-05-14T01:27:26.229Z,98130.94
2023-05-14T01:30:04.344Z,98129.16
2023-05-14T01:32:34.874Z,98126.53
2023-05-14T01:35:03.959Z,98128.94
2023-05-14T01:37:34.375Z,98099.16
2023-05-14T01:40:03.847Z,98121.13
2023-05-14T01:42:32.958Z,98127.78
2023-05-14T01:45:01.494Z,98121.66
2023-05-14T01:47:29.590Z,98117.56
2023-05-14T01:49:57.648Z,98122.44
2023-05-14T01:52:25.736Z,98107.25
2023-05-14T01:54:55.297Z,98118.09
2023-05-14T01:57:23.318Z,98102.91
2023-05-14T01:59:51.284Z,98113.78
2023-05-14T02:02:19.540Z,98102.72
2023-05-14T02:04:47.861Z,98117.97
2023-05-14T02:07:16.038Z,98113.53
2023-05-14T02:09:44.088Z,98094.91
2023-05-14T02:12:13.909Z,98107.44
2023-05-14T02:14:42.296Z,98105.75
2023-05-14T02:17:10.509Z,98099.78
2023-05-14T02:19:38.563Z,98098.03
2023-05-14T02:22:07.054Z,98101.38
2023-05-14T02:24:35.315Z,98088.47
2023-05-14T02:27:03.549Z,98095.31
2023-05-14T02:29:32.922Z,98081.63
2023-05-14T02:32:01.103Z,98084.28
2023-05-14T02:34:29.135Z,98086.13
2023-05-14T02:36:57.148Z,98071.69
2023-05-14T02:39:25.432Z,98084.38
2023-05-14T02:41:54.027Z,98076.94
2023-05-14T02:44:22.065Z,98092.13
2023-05-14T02:46:51.577Z,98081.94
2023-05-14T02:49:21.100Z,98082.84
2023-05-14T02:51:49.112Z,98095.53
2023-05-14T02:54:17.275Z,98081.94
2023-05-14T02:56:45.246Z,98086.22
2023-05-14T02:59:13.241Z,98091.38
2023-05-14T03:01:41.951Z,98089.63
2023-05-14T03:04:12.072Z,98083.59
2023-05-14T03:06:40.627Z,98088.75
2023-05-14T03:09:08.767Z,98076.81
2023-05-14T03:11:36.909Z,98087.84
2023-05-14T03:14:04.910Z,98080.13
2023-05-14T03:16:33.301Z,98086.78
2023-05-14T03:19:01.511Z,98081.47
2023-05-14T03:21:31.894Z,98078.09
2023-05-14T03:24:00.336Z,98078.16
2023-05-14T03:26:29.636Z,98073.09
2023-05-14T03:28:57.629Z,98071.22
2023-05-14T03:31:26.468Z,98067.03
2023-05-14T03:33:55.283Z,98075.72
2023-05-14T03:36:23.785Z,98074.63
2023-05-14T03:38:53.411Z,98067.31
2023-05-14T03:41:22.076Z,98056.28
2023-05-14T03:43:50.252Z,98075.66
2023-05-14T03:46:18.352Z,98064.66
2023-05-14T03:48:46.631Z,98079.00
2023-05-14T03:51:14.998Z,98069.72
2023-05-14T03:53:43.091Z,98075.66
2023-05-14T03:56:12.720Z,98080.66
2023-05-14T03:58:40.964Z,98078.94
2023-05-14T04:01:09.058Z,98078.91
2023-05-14T04:03:37.490Z,98069.66
2023-05-14T04:06:06.315Z,98077.19
2023-05-14T04:08:34.318Z,98078.88
2023-05-14T04:11:02.678Z,98081.34
2023-05-14T04:13:32.416Z,98084.63
2023-05-14T04:16:00.814Z,98068.47
2023-05-14T04:18:28.974Z,98070.06
2023-05-14T04:20:57.187Z,98079.44
2023-05-14T04:23:25.862Z,98081.03
2023-05-14T04:25:54.109Z,98072.53
2023-05-14T04:28:22.018Z,98073.16
2023-05-14T04:30:52.002Z,98065.41
2023-05-14T04:33:20.083Z,98070.34
2023-05-14T04:35:48.750Z,98071.25
2023-05-14T04:38:17.158Z,98067.56
2023-05-14T04:40:45.112Z,98064.19
2023-05-14T04:43:13.219Z,98058.13
2023-05-14T04:45:43.149Z,98057.97
2023-05-14T04:48:12.816Z,98058.81
2023-05-14T04:50:40.948Z,98046.31
2023-05-14T04:53:08.901Z,98046.59
2023-05-14T04:55:36.950Z,98035.41
2023-05-14T04:58:05.344Z,98051.94
2023-05-14T05:00:33.766Z,98051.72
2023-05-14T05:03:01.980Z,98052.47
2023-05-14T05:05:31.621Z,98048.19
2023-05-14T05:08:00.167Z,98050.69
2023-05-14T05:10:28.296Z,98049.81
2023-05-14T05:12:56.333Z,98055.78
2023-05-14T05:15:26.419Z,98047.31
2023-05-14T05:17:55.071Z,98044.56
2023-05-14T05:20:23.637Z,98037.97
2023-05-14T05:22:53.241Z,98042.25
2023-05-14T05:25:21.689Z,98044.09
2023-05-14T05:27:49.973Z,98037.19
2023-05-14T05:30:18.352Z,98033.50
2023-05-14T05:32:46.798Z,98014.28
2023-05-14T05:35:14.894Z,98035.31
2023-05-14T05:37:45.278Z,98033.66
2023-05-14T05:40:15.862Z,98031.91
2023-05-14T05:42:43.916Z,98040.38
2023-05-14T05:45:12.405Z,98033.34
2023-05-14T05:47:40.654Z,98049.47
2023-05-14T05:50:10.055Z,98037.63
2023-05-14T05:52:38.640Z,98043.63
2023-05-14T05:55:07.962Z,98035.97
2023-05-14T05:57:37.564Z,98038.44
2023-05-14T06:00:13.159Z,98039.16
2023-05-14T06:02:42.744Z,98044.97
2023-05-14T06:05:11.736Z,98038.78
2023-05-14T06:07:40.200Z,98039.31
2023-05-14T06:10:09.915Z,98027.09
2023-05-14T06:12:39.312Z,98031.88
2023-05-14T06:15:08.598Z,98033.16
2023-05-14T06:17:36.918Z,98036.53
2023-05-14T06:20:08.155Z,98044.84
2023-05-14T06:22:36.431Z,98036.72
2023-05-14T06:25:05.024Z,98044.06
2023-05-14T06:27:33.513Z,98040.59
2023-05-14T06:30:02.998Z,98030.59
2023-05-14T06:32:31.440Z,98028.47
2023-05-14T06:34:59.581Z,98019.03
2023-05-14T06:37:27.774Z,98024.91
2023-05-14T06:39:57.732Z,98023.00
2023-05-14T06:42:26.508Z,98027.47
2023-05-14T06:44:54.745Z,98018.59
2023-05-14T06:47:24.259Z,98025.72
2023-05-14T06:49:52.441Z,98023.88
2023-05-14T06:52:20.426Z,98016.41
2023-05-14T06:54:48.586Z,98015.44
2023-05-14T06:57:16.766Z,98012.13
2023-05-14T06:59:45.274Z,98007.72
2023-05-14T07:02:13.649Z,98016.09
2023-05-14T07:04:43.224Z,98010.44
2023-05-14T07:07:15.477Z,97983.94
2023-05-14T07:09:43.725Z,98016.78
2023-05-14T07:12:11.782Z,98008.88
2023-05-14T07:14:39.758Z,98008.13
2023-05-14T07:17:08.204Z,98009.59
2023-05-14T07:19:36.263Z,98001.56
2023-05-14T07:22:05.997Z,98005.72
2023-05-14T07:24:34.101Z,98009.91
2023-05-14T07:27:02.442Z,98009.47
2023-05-14T07:29:31.439Z,98006.75
2023-05-14T07:31:59.921Z,98000.91
2023-05-14T07:34:28.280Z,97997.06
2023-05-14T07:36:56.485Z,97999.25
2023-05-14T07:39:26.164Z,97991.59
2023-05-14T07:41:54.976Z,97977.75
2023-05-14T07:44:23.580Z,97985.84
2023-05-14T07:46:51.922Z,97988.44
2023-05-14T07:49:20.088Z,97982.88
2023-05-14T07:51:48.294Z,97955.19
2023-05-14T07:54:16.342Z,97981.75
2023-05-14T07:56:45.778Z,97980.28
2023-05-14T07:59:14.415Z,97980.16
2023-05-14T08:01:42.838Z,97975.16
2023-05-14T08:04:12.125Z,97974.25
2023-05-14T08:06:40.617Z,97959.66
2023-05-14T08:09:08.899Z,97980.16
2023-05-14T08:11:37.251Z,97972.22
2023-05-14T08:14:06.900Z,97972.66
2023-05-14T08:16:35.101Z,97977.03
2023-05-14T08:19:03.402Z,97980.72
2023-05-14T08:21:31.784Z,97975.16
2023-05-14T08:23:59.880Z,97982.06
2023-05-14T08:26:28.317Z,97985.69
2023-05-14T08:28:56.393Z,97977.63
2023-05-14T08:31:26.264Z,97967.75
2023-05-14T08:33:54.340Z,97979.91
2023-05-14T08:36:22.820Z,97945.06
2023-05-14T08:38:51.192Z,97962.81
2023-05-14T08:41:20.050Z,97963.03
2023-05-14T08:44:01.239Z,97964.75
2023-05-14T08:46:32.090Z,97964.75
2023-05-14T08:49:06.733Z,97957.78
2023-05-14T08:51:35.057Z,97951.72
2023-05-14T08:54:04.854Z,97959.00
2023-05-14T08:56:34.570Z,97949.25
2023-05-14T08:59:03.428Z,97932.72
2023-05-14T09:01:33.586Z,97944.91
2023-05-14T09:04:07.165Z,97954.03
2023-05-14T09:06:36.342Z,97934.34
2023-05-14T09:09:06.254Z,97933.44
2023-05-14T09:11:34.326Z,97950.72
2023-05-14T09:14:02.404Z,97920.66
2023-05-14T09:16:31.090Z,97941.38
2023-05-14T09:19:02.768Z,97941.53
2023-05-14T09:21:33.475Z,97939.22
2023-05-14T09:24:01.782Z,97924.06
2023-05-14T09:26:34.006Z,97942.03
2023-05-14T09:29:04.127Z,97938.84
2023-05-14T09:31:33.613Z,97926.66
2023-05-14T09:34:04.474Z,97926.28
2023-05-14T09:36:36.053Z,97930.91
2023-05-14T09:39:05.639Z,97902.94
2023-05-14T09:41:34.119Z,97927.50
2023-05-14T09:44:04.164Z,97917.81
2023-05-14T09:46:33.906Z,97908.53
2023-05-14T09:49:03.449Z,97911.19
2023-05-14T09:51:33.008Z,97903.94
2023-05-14T09:54:02.177Z,97904.38
2023-05-14T09:56:30.209Z,97879.50
2023-05-14T09:58:58.281Z,97897.91
2023-05-14T10:01:27.093Z,97885.28
2023-05-14T10:03:56.270Z,97892.88
2023-05-14T10:06:29.166Z,97896.13
2023-05-14T10:08:58.830Z,97890.94
2023-05-14T10:11:29.906Z,97881.75
2023-05-14T10:14:05.111Z,97876.41
2023-05-14T10:16:35.695Z,97881.59
2023-05-14T10:19:09.176Z,97876.91
2023-05-14T10:21:40.616Z,97872.41
2023-05-14T10:24:11.235Z,97885.34
2023-05-14T10:26:40.940Z,97882.47
2023-05-14T10:29:11.409Z,97877.34
2023-05-14T10:31:52.117Z,97880.72
2023-05-14T10:34:38.985Z,97872.16
2023-05-14T10:37:10.061Z,97861.16
2023-05-14T10:39:46.791Z,97857.31
2023-05-14T10:42:16.598Z,97854.56
2023-05-14T10:44:50.309Z,97850.88
2023-05-14T10:47:18.671Z,97862.66
2023-05-14T10:49:50.191Z,97855.25
2023-05-14T10:52:20.863Z,97840.88
2023-05-14T10:54:52.964Z,97809.66
2023-05-14T10:57:23.081Z,97841.66
2023-05-14T10:59:55.167Z,97835.63
2023-05-14T11:02:25.758Z,97837.59
2023-05-14T11:04:59.065Z,97841.78
2023-05-14T11:07:31.718Z,97838.88
2023-05-14T11:10:02.948Z,97842.28
2023-05-14T11:12:31.719Z,97840.94
2023-05-14T11:15:02.345Z,97832.06
2023-05-14T11:17:32.003Z,97808.19
2023-05-14T11:20:01.456Z,97797.16
2023-05-14T11:22:31.070Z,97827.06
2023-05-14T11:24:59.277Z,97792.59
2023-05-14T11:27:27.632Z,97820.84
2023-05-14T11:29:56.481Z,97805.13
2023-05-14T11:32:24.898Z,97825.41
2023-05-14T11:34:53.460Z,97824.06
2023-05-14T11:37:21.542Z,97832.38
2023-05-14T11:39:52.889Z,97824.16
2023-05-14T11:42:22.501Z,97833.41
2023-05-14T11:44:52.132Z,97829.78
2023-05-14T11:47:21.401Z,97823.94
2023-05-14T11:49:50.478Z,97790.94
2023-05-14T11:52:22.037Z,97799.41
2023-05-14T11:54:52.562Z,97793.34
2023-05-14T11:57:22.513Z,97812.47
2023-05-14T11:59:56.856Z,97813.44
2023-05-14T12:02:27.958Z,97795.09
2023-05-14T12:04:56.269Z,97795.25
2023-05-14T12:07:24.803Z,97782.44
2023-05-14T12:09:54.298Z,97803.09
2023-05-14T12:12:23.282Z,97801.25
2023-05-14T12:14:52.705Z,97771.91
2023-05-14T12:17:22.340Z,97772.88
2023-05-14T12:19:52.618Z,97792.28
2023-05-14T12:22:22.324Z,97793.78
2023-05-14T12:24:56.363Z,97785.16
2023-05-14T12:27:24.714Z,97787.28
2023-05-14T12:30:09.249Z,97786.81
2023-05-14T12:32:42.255Z,97788.34
2023-05-14T12:35:10.925Z,97778.81
2023-05-14T12:37:40.218Z,97785.59
2023-05-14T12:40:11.679Z,97780.88
2023-05-14T12:42:40.044Z,97777.13
2023-05-14T12:45:09.319Z,97776.25
2023-05-14T12:47:37.964Z,97774.06
2023-05-14T12:50:07.086Z,97767.78
2023-05-14T12:55:07.432Z,97766.47
2023-05-14T12:57:37.056Z,97771.13
2023-05-14T13:00:08.427Z,97762.56
2023-05-14T13:02:42.741Z,97762.25
2023-05-14T13:05:12.403Z,97752.88
2023-05-14T13:07:40.940Z,97752.34
2023-05-14T13:10:10.017Z,97760.63
2023-05-14T13:12:39.895Z,97755.53
2023-05-14T13:15:09.151Z,97744.50
2023-05-14T13:17:37.801Z,97740.69
2023-05-14T13:20:06.928Z,97748.03
2023-05-14T13:22:35.023Z,97745.03
2023-05-14T13:25:03.321Z,97746.09
2023-05-14T13:27:31.825Z,97727.97
2023-05-14T13:30:01.505Z,97740.09
2023-05-14T13:32:29.712Z,97734.84
2023-05-14T13:34:57.969Z,97735.22
2023-05-14T13:37:26.597Z,97723.56
2023-05-14T13:39:54.695Z,97727.75
2023-05-14T13:42:23.771Z,97716.41
2023-05-14T13:44:52.205Z,97716.75
2023-05-14T13:47:21.656Z,97712.59
2023-05-14T13:49:49.921Z,97720.69
2023-05-14T13:52:18.327Z,97709.06
2023-05-14T13:54:46.747Z,97704.94
2023-05-14T13:57:15.829Z,97699.47
2023-05-14T13:59:44.971Z,97689.47
2023-05-14T14:02:14.723Z,97685.72
2023-05-14T14:04:44.446Z,97688.94
2023-05-14T14:07:12.670Z,97697.53
2023-05-14T14:09:41.037Z,97678.75
2023-05-14T14:12:10.265Z,97694.00
2023-05-14T14:14:38.748Z,97683.59
2023-05-14T14:17:09.116Z,97682.22
2023-05-14T14:19:37.218Z,97675.16
2023-05-14T14:22:06.782Z,97677.97
2023-05-14T14:24:34.880Z,97680.34
2023-05-14T14:27:03.263Z,97665.19
2023-05-14T14:29:31.408Z,97665.38
2023-05-14T14:32:00.555Z,97657.34
2023-05-14T14:34:29.354Z,97674.75
2023-05-14T14:36:57.854Z,97669.56
2023-05-14T14:39:27.721Z,97655.06
2023-05-14T14:41:56.329Z,97654.84
2023-05-14T14:44:24.432Z,97653.91
2023-05-14T14:46:52.573Z,97637.06
2023-05-14T14:49:20.770Z,97657.41
2023-05-14T14:51:49.229Z,97648.25
2023-05-14T14:54:17.697Z,97648.66
2023-05-14T14:56:49.404Z,97649.97
2023-05-14T14:59:17.557Z,97651.72
2023-05-14T15:01:45.976Z,97651.44
2023-05-14T15:04:14.431Z,97646.44
2023-05-14T15:06:42.650Z,97654.59
2023-05-14T15:09:10.736Z,97651.88
2023-05-14T15:11:39.017Z,97653.53
2023-05-14T15:14:08.593Z,97653.00
2023-05-14T15:16:36.713Z,97635.81
2023-05-14T15:19:05.116Z,97657.47
2023-05-14T15:21:33.255Z,97656.56
2023-05-14T15:24:01.452Z,97645.50
2023-05-14T15:26:30.078Z,97648.56
2023-05-14T15:28:59.050Z,97648.19
2023-05-14T15:31:28.788Z,97649.78
2023-05-14T15:33:57.120Z,97648.84
2023-05-14T15:36:25.207Z,97625.44
2023-05-14T15:38:53.584Z,97641.69
2023-05-14T15:41:22.834Z,97630.09
2023-05-14T15:43:50.994Z,97642.09
2023-05-14T15:46:19.363Z,97641.41
2023-05-14T15:48:49.218Z,97635.84
2023-05-14T15:51:18.317Z,97622.19
2023-05-14T15:53:47.107Z,97641.34
2023-05-14T15:56:15.254Z,97640.66
2023-05-14T15:58:43.479Z,97650.59
2023-05-14T16:01:11.730Z,97637.88
2023-05-14T16:03:40.258Z,97640.22
2023-05-14T16:06:10.023Z,97633.53
2023-05-14T16:08:38.348Z,97637.50
2023-05-14T16:11:08.301Z,97624.16
2023-05-14T16:13:38.723Z,97639.41
2023-05-14T16:16:07.154Z,97645.38
2023-05-14T16:18:35.825Z,97639.22
2023-05-14T16:21:03.984Z,97640.09
2023-05-14T16:23:34.392Z,97643.50
2023-05-14T16:26:02.499Z,97639.28
2023-05-14T16:28:30.759Z,97648.47
2023-05-14T16:30:59.236Z,97641.28
2023-05-14T16:33:28.299Z,97640.97
2023-05-14T16:35:56.610Z,97637.91
2023-05-14T16:38:25.081Z,97636.88
2023-05-14T16:40:55.678Z,97649.97
2023-05-14T16:43:24.135Z,97642.63
2023-05-14T16:45:52.316Z,97640.31
2023-05-14T16:48:20.738Z,97632.84
2023-05-14T16:50:48.767Z,97624.78
2023-05-14T16:53:16.873Z,97626.66
2023-05-14T16:55:44.928Z,97630.19
2023-05-14T16:58:14.372Z,97633.34
2023-05-14T17:00:42.655Z,97631.75
2023-05-14T17:03:10.827Z,97621.66
2023-05-14T17:05:39.263Z,97627.28
2023-05-14T17:08:08.067Z,97624.56
2023-05-14T17:10:36.363Z,97619.25
2023-05-14T17:13:05.983Z,97621.31
2023-05-14T17:15:36.753Z,97601.41
2023-05-14T17:18:05.001Z,97626.38
2023-05-14T17:20:35.506Z,97600.75
2023-05-14T17:23:03.690Z,97609.66
2023-05-14T17:25:33.450Z,97627.16
2023-05-14T17:28:02.337Z,97623.72
2023-05-14T17:30:30.562Z,97600.63
2023-05-14T17:33:00.126Z,97626.94
2023-05-14T17:35:29.781Z,97609.66
2023-05-14T17:38:00.458Z,97622.88
2023-05-14T17:40:29.665Z,97633.41
2023-05-14T17:42:57.937Z,97624.72
2023-05-14T17:45:26.331Z,97629.59
2023-05-14T17:47:55.110Z,97626.44
2023-05-14T17:50:24.824Z,97620.25
2023-05-14T17:52:54.000Z,97633.63
2023-05-14T17:55:23.298Z,97626.25
2023-05-14T17:57:51.529Z,97621.06
2023-05-14T18:00:20.199Z,97616.81
2023-05-14T18:02:48.784Z,97630.28
2023-05-14T18:05:18.628Z,97625.41
2023-05-14T18:07:50.783Z,97630.94
2023-05-14T18:10:19.914Z,97628.69
2023-05-14T18:12:48.266Z,97637.88
2023-05-14T18:15:16.427Z,97640.25
2023-05-14T18:17:45.094Z,97639.22
2023-05-14T18:20:13.976Z,97647.16
2023-05-14T18:22:42.429Z,97646.66
2023-05-14T18:25:12.984Z,97646.13
2023-05-14T18:27:44.493Z,97661.44
2023-05-14T18:30:14.778Z,97664.06
2023-05-14T18:32:45.081Z,97658.38
2023-05-14T18:35:13.718Z,97655.72
2023-05-14T18:37:42.119Z,97653.19
2023-05-14T18:40:16.365Z,97670.13
2023-05-14T18:42:46.956Z,97645.63
2023-05-14T18:45:15.238Z,97663.38
2023-05-14T18:47:43.604Z,97673.28
2023-05-14T18:50:13.626Z,97654.53
2023-05-14T18:52:41.804Z,97678.75
2023-05-14T18:55:11.738Z,97689.59
2023-05-14T18:57:40.057Z,97687.44
2023-05-14T19:00:09.406Z,97685.06
2023-05-14T19:02:37.784Z,97666.38
2023-05-14T19:05:06.539Z,97688.31
2023-05-14T19:07:34.920Z,97690.44
2023-05-14T19:10:03.751Z,97689.22
2023-05-14T19:12:33.573Z,97702.72
2023-05-14T19:15:01.838Z,97703.19
2023-05-14T19:17:32.799Z,97715.06
2023-05-14T19:20:00.983Z,97720.81
2023-05-14T19:22:29.138Z,97701.06
2023-05-14T19:24:57.612Z,97717.56
2023-05-14T19:27:26.825Z,97729.13
2023-05-14T19:29:56.717Z,97715.97
2023-05-14T19:32:25.187Z,97728.88
2023-05-14T19:34:55.288Z,97726.44
2023-05-14T19:37:23.539Z,97719.88
2023-05-14T19:39:52.127Z,97729.66
2023-05-14T19:42:20.399Z,97711.31
2023-05-14T19:44:48.409Z,97730.59
2023-05-14T19:47:18.245Z,97717.91
2023-05-14T19:49:46.368Z,97719.19
2023-05-14T19:52:14.860Z,97716.38
2023-05-14T19:54:43.094Z,97715.97
2023-05-14T19:57:11.374Z,97709.50
2023-05-14T19:59:40.128Z,97728.34
2023-05-14T20:02:09.222Z,97723.44
2023-05-14T20:04:40.103Z,97728.00
2023-05-14T20:07:09.460Z,97726.53
2023-05-14T20:09:37.414Z,97735.91
2023-05-14T20:12:06.104Z,97706.25
2023-05-14T20:14:34.286Z,97714.09
2023-05-14T20:17:02.410Z,97732.41
2023-05-14T20:19:31.218Z,97724.59
2023-05-14T20:22:00.828Z,97733.88
2023-05-14T20:24:30.081Z,97729.69
2023-05-14T20:26:58.131Z,97711.97
2023-05-14T20:29:26.409Z,97732.81
2023-05-14T20:31:54.450Z,97729.25
2023-05-14T20:34:22.577Z,97729.97
2023-05-14T20:36:50.885Z,97726.47
2023-05-14T20:39:20.643Z,97725.69
2023-05-14T20:41:49.228Z,97718.63
2023-05-14T20:44:18.441Z,97722.69
2023-05-14T20:46:48.707Z,97717.53
2023-05-14T20:49:16.963Z,97718.16
2023-05-14T20:51:45.013Z,97697.50
2023-05-14T20:54:13.047Z,97704.09
2023-05-14T20:56:42.468Z,97711.84
2023-05-14T20:59:10.469Z,97704.91
2023-05-14T21:01:38.555Z,97710.16
2023-05-14T21:04:07.406Z,97706.75
2023-05-14T21:06:36.025Z,97705.91
2023-05-14T21:09:04.072Z,97669.91
2023-05-14T21:11:32.503Z,97711.25
2023-05-14T21:14:01.889Z,97716.41
2023-05-14T21:16:31.277Z,97703.13
2023-05-14T21:18:59.534Z,97697.50
2023-05-14T21:21:27.688Z,97710.91
2023-05-14T21:23:56.007Z,97712.75
2023-05-14T21:26:33.110Z,97729.97
2023-05-14T21:29:03.992Z,97722.22
2023-05-14T21:31:32.705Z,97720.53
2023-05-14T21:34:00.750Z,97723.81
2023-05-14T21:36:28.812Z,97729.66
2023-05-14T21:38:56.946Z,97719.53
2023-05-14T21:41:24.924Z,97726.41
2023-05-14T21:43:53.234Z,97724.72
2023-05-14T21:46:22.634Z,97716.28
2023-05-14T21:48:50.769Z,97708.53
2023-05-14T21:51:18.997Z,97708.53
2023-05-14T21:53:48.481Z,97712.03
2023-05-14T21:56:16.822Z,97703.56
2023-05-14T21:58:45.766Z,97709.63
2023-05-14T22:01:13.823Z,97704.88
2023-05-14T22:03:43.661Z,97685.75
2023-05-14T22:06:11.844Z,97702.66
2023-05-14T22:08:39.928Z,97712.25
2023-05-14T22:11:08.035Z,97715.63
2023-05-14T22:13:40.856Z,97712.13
2023-05-14T22:16:13.350Z,97687.22
2023-05-14T22:18:44.550Z,97722.56
2023-05-14T22:21:12.656Z,97713.97
2023-05-14T22:23:40.669Z,97712.38
2023-05-14T22:26:08.637Z,97704.75
2023-05-14T22:28:39.939Z,97698.59
2023-05-14T22:31:08.118Z,97703.75
2023-05-14T22:33:36.197Z,97698.66
2023-05-14T22:36:07.014Z,97695.22
2023-05-14T22:38:35.552Z,97695.34
2023-05-14T22:41:03.574Z,97666.81
2023-05-14T22:43:31.665Z,97670.09
2023-05-14T22:46:00.085Z,97689.56
2023-05-14T22:48:28.199Z,97681.94
2023-05-14T22:50:56.210Z,97690.66
2023-05-14T22:53:25.737Z,97684.69
2023-05-14T22:55:54.078Z,97683.00
2023-05-14T22:58:22.065Z,97683.91
2023-05-14T23:00:50.139Z,97673.66
2023-05-14T23:03:18.085Z,97667.84
2023-05-14T23:05:46.376Z,97670.31
2023-05-14T23:08:14.589Z,97666.88
2023-05-14T23:10:44.051Z,97671.25
2023-05-14T23:13:12.335Z,97663.56
2023-05-14T23:15:40.408Z,97667.38
2023-05-14T23:18:09.359Z,97662.38
2023-05-14T23:20:37.475Z,97668.50
2023-05-14T23:23:06.429Z,97664.34
2023-05-14T23:25:34.657Z,97671.34
2023-05-14T23:28:04.068Z,97666.47
2023-05-14T23:30:32.125Z,97666.59
2023-05-14T23:33:00.441Z,97663.22
2023-05-14T23:35:29.225Z,97658.25
2023-05-14T23:37:57.469Z,97656.63
2023-05-14T23:40:25.644Z,97629.53
2023-05-14T23:42:53.655Z,97643.06
2023-05-14T23:45:23.373Z,97637.97
2023-05-14T23:47:51.675Z,97638.91
2023-05-14T23:50:19.807Z,97637.91
2023-05-14T23:52:48.087Z,97639.88
2023-05-14T23:55:16.136Z,97619.66
2023-05-14T23:57:44.181Z,97639.88
